Time;durP1;ratioP1;P1;durP2;ratioP2;P2;SDS_P1;SDS_P2;PMS_P1;PMS_P2;Temp;Humidity;BMP_temperature;BMP_pressure;BME280_temperature;BME280_humidity;BME280_pressure;Samples;Min_cycle;Max_cycle;Signal;HPM_P1;HPM_P2
2021/06/16 00:00:15;;;;;;;9.60;4.70;;;;;;;17.58;100.00;101066.53;4982379;28;20097;-58
2021/06/16 00:02:43;;;;;;;12.90;5.57;;;;;;;17.55;100.00;101062.41;4983052;28;20386;-57
2021/06/16 00:05:13;;;;;;;14.07;4.97;;;;;;;17.50;100.00;101065.69;4985533;28;20054;-57
2021/06/16 00:07:41;;;;;;;8.32;5.07;;;;;;;17.54;100.00;101058.84;4982157;28;20455;-58
2021/06/16 00:10:11;;;;;;;11.43;5.22;;;;;;;17.59;100.00;101054.72;4984307;28;20043;-57
2021/06/16 00:12:40;;;;;;;11.00;5.60;;;;;;;17.53;100.00;101057.19;4985729;28;20050;-57
2021/06/16 00:15:12;;;;;;;14.13;5.80;;;;;;;17.53;100.00;101051.78;4980443;28;20050;-57
2021/06/16 00:17:41;;;;;;;11.82;5.70;;;;;;;17.48;100.00;101051.56;4982657;28;20478;-57
2021/06/16 00:20:10;;;;;;;12.10;4.80;;;;;;;17.42;100.00;101052.38;4981485;28;20050;-57
2021/06/16 00:22:38;;;;;;;16.40;5.85;;;;;;;17.41;100.00;101055.28;4984877;28;20351;-58
2021/06/16 00:25:09;;;;;;;10.50;5.22;;;;;;;17.44;100.00;101044.09;4980820;28;20304;-57
2021/06/16 00:27:37;;;;;;;7.15;4.93;;;;;;;17.41;100.00;101045.31;4981385;28;20334;-57
2021/06/16 00:30:06;;;;;;;10.70;6.47;;;;;;;17.45;100.00;101041.19;4986956;28;20505;-57
2021/06/16 00:32:34;;;;;;;11.98;5.05;;;;;;;17.49;100.00;101047.84;4982971;28;20050;-58
2021/06/16 00:35:04;;;;;;;9.18;5.35;;;;;;;17.45;100.00;101041.19;4983684;28;20109;-57
2021/06/16 00:37:34;;;;;;;10.35;5.38;;;;;;;17.41;100.00;101042.63;4981932;28;20042;-57
2021/06/16 00:40:03;;;;;;;10.50;4.88;;;;;;;17.48;100.00;101039.94;4983931;28;20046;-58
2021/06/16 00:42:32;;;;;;;9.10;5.38;;;;;;;17.45;100.00;101040.34;4978711;28;20227;-57
2021/06/16 00:45:00;;;;;;;8.30;5.55;;;;;;;17.44;100.00;101044.91;4980533;28;20050;-57
2021/06/16 00:47:28;;;;;;;12.07;5.50;;;;;;;17.42;100.00;101033.47;4979686;28;20105;-57
2021/06/16 00:49:56;;;;;;;10.93;5.57;;;;;;;17.40;100.00;101045.53;4979899;28;20101;-57
2021/06/16 00:52:25;;;;;;;12.05;5.80;;;;;;;17.33;100.00;101032.81;4982617;28;20046;-57
2021/06/16 00:54:53;;;;;;;11.07;5.57;;;;;;;17.35;100.00;101036.16;4980886;28;20378;-57
2021/06/16 00:57:21;;;;;;;8.63;5.25;;;;;;;17.28;100.00;101032.63;4979103;28;20038;-57
2021/06/16 00:59:54;;;;;;;12.93;6.05;;;;;;;17.26;100.00;101031.97;4984313;28;20039;-58
2021/06/16 01:02:22;;;;;;;10.35;4.85;;;;;;;17.25;100.00;101032.19;4979356;28;20057;-58
2021/06/16 01:04:53;;;;;;;9.02;5.35;;;;;;;17.27;100.00;101033.66;4978358;28;20046;-57
2021/06/16 01:07:24;;;;;;;9.02;5.72;;;;;;;17.17;100.00;101028.63;4984152;28;20060;-57
2021/06/16 01:09:58;;;;;;;11.70;5.43;;;;;;;16.97;100.00;101028.56;4978723;28;20051;-58
2021/06/16 01:12:34;;;;;;;7.82;5.00;;;;;;;16.72;100.00;101021.97;4984601;28;20058;-58
2021/06/16 01:15:05;;;;;;;11.85;6.03;;;;;;;16.59;100.00;101026.22;4980817;28;20034;-57
2021/06/16 01:17:36;;;;;;;10.43;5.75;;;;;;;16.59;100.00;101020.03;4982216;28;20789;-57
2021/06/16 01:20:21;;;;;;;8.90;5.50;;;;;;;16.80;100.00;101019.09;4982260;28;20038;-58
2021/06/16 01:22:57;;;;;;;8.83;5.53;;;;;;;16.76;100.00;101021.34;4982886;28;20105;-58
2021/06/16 01:25:30;;;;;;;10.55;5.93;;;;;;;16.83;100.00;101026.78;4979316;28;20051;-58
2021/06/16 01:27:59;;;;;;;10.25;5.10;;;;;;;16.83;100.00;101016.81;4980158;28;20042;-57
2021/06/16 01:30:32;;;;;;;10.52;5.40;;;;;;;16.86;100.00;101021.81;4981419;28;20101;-57
2021/06/16 01:33:01;;;;;;;11.80;5.75;;;;;;;16.93;100.00;101016.50;4980603;28;20046;-57
2021/06/16 01:35:31;;;;;;;14.48;6.40;;;;;;;16.95;100.00;101009.00;4978940;28;20109;-57
2021/06/16 01:38:00;;;;;;;9.80;5.40;;;;;;;16.97;100.00;101011.53;4980113;28;20047;-57
2021/06/16 01:40:29;;;;;;;12.20;5.55;;;;;;;16.89;100.00;101014.41;4978741;28;20042;-57
2021/06/16 01:42:59;;;;;;;9.48;5.38;;;;;;;16.77;100.00;101001.44;4980686;28;20097;-57
2021/06/16 01:45:30;;;;;;;11.52;5.82;;;;;;;16.54;100.00;101001.72;4980391;28;20042;-58
2021/06/16 01:47:59;;;;;;;11.13;5.30;;;;;;;16.42;100.00;100997.94;4977472;28;20288;-57
2021/06/16 01:50:27;;;;;;;10.63;5.10;;;;;;;16.38;100.00;101000.19;4983558;28;20047;-57
2021/06/16 01:52:57;;;;;;;8.55;4.90;;;;;;;16.43;100.00;100995.03;4980643;28;20108;-57
2021/06/16 01:55:25;;;;;;;8.27;5.53;;;;;;;16.52;100.00;100995.72;4985040;28;20097;-57
2021/06/16 01:57:55;;;;;;;9.65;6.22;;;;;;;16.61;100.00;100993.69;4984636;28;20051;-58
2021/06/16 02:00:25;;;;;;;9.75;4.97;;;;;;;16.74;100.00;100996.47;4988588;28;20039;-57
2021/06/16 02:02:53;;;;;;;7.53;4.82;;;;;;;16.84;100.00;100991.53;4987488;28;20046;-57
2021/06/16 02:05:21;;;;;;;9.80;5.65;;;;;;;16.82;100.00;100998.97;4985340;28;20051;-57
2021/06/16 02:07:58;;;;;;;8.18;4.38;;;;;;;16.73;100.00;100994.78;4986527;28;20338;-57
2021/06/16 02:10:30;;;;;;;8.93;5.20;;;;;;;16.72;100.00;100998.50;4983576;28;20047;-60
2021/06/16 02:13:01;;;;;;;9.70;5.63;;;;;;;16.78;100.00;100996.88;4988043;28;20328;-58
2021/06/16 02:15:36;;;;;;;10.60;5.25;;;;;;;16.80;100.00;100992.13;4982021;28;20126;-57
2021/06/16 02:18:06;;;;;;;7.47;5.30;;;;;;;16.63;100.00;100989.75;4984937;28;20520;-58
2021/06/16 02:20:34;;;;;;;12.52;5.15;;;;;;;16.66;100.00;100989.34;4983894;28;20049;-57
2021/06/16 02:23:02;;;;;;;13.18;5.75;;;;;;;16.62;100.00;100987.25;4980104;28;20043;-57
2021/06/16 02:25:30;;;;;;;8.40;5.00;;;;;;;16.59;100.00;100980.41;4981985;28;20631;-57
2021/06/16 02:27:58;;;;;;;7.43;5.07;;;;;;;16.60;100.00;100983.91;4983351;28;20443;-57
2021/06/16 02:30:26;;;;;;;10.32;5.05;;;;;;;17.02;100.00;100982.06;4985832;28;20042;-58
2021/06/16 02:32:55;;;;;;;7.88;5.25;;;;;;;16.61;100.00;100972.94;4987408;28;20050;-57
2021/06/16 02:35:23;;;;;;;9.25;5.00;;;;;;;16.94;100.00;100964.22;4982628;28;20051;-57
2021/06/16 02:37:54;;;;;;;8.55;4.65;;;;;;;16.77;100.00;100960.16;4982736;28;20054;-57
2021/06/16 02:40:22;;;;;;;9.18;5.07;;;;;;;16.58;100.00;100957.16;4985250;28;20034;-57
2021/06/16 02:42:52;;;;;;;12.60;5.43;;;;;;;16.54;100.00;100958.59;4983327;28;20305;-57
2021/06/16 02:45:21;;;;;;;8.45;5.20;;;;;;;16.46;100.00;100951.50;4982896;28;20042;-57
2021/06/16 02:47:50;;;;;;;9.13;5.05;;;;;;;16.84;100.00;100945.69;4982990;28;20042;-57
2021/06/16 02:50:23;;;;;;;13.32;5.20;;;;;;;16.52;100.00;100945.31;4982917;28;20042;-57
2021/06/16 02:52:51;;;;;;;11.48;5.70;;;;;;;16.40;100.00;100946.06;4987957;28;20101;-57
2021/06/16 02:55:23;;;;;;;9.13;6.22;;;;;;;16.38;100.00;100945.47;4981840;28;20082;-57
2021/06/16 02:57:52;;;;;;;7.35;4.72;;;;;;;16.43;100.00;100938.44;4985170;28;20437;-57
2021/06/16 03:00:21;;;;;;;9.55;4.68;;;;;;;16.45;100.00;100928.28;4987772;28;20457;-57
2021/06/16 03:02:50;;;;;;;9.93;5.20;;;;;;;16.43;100.00;100932.19;4984075;28;20061;-57
2021/06/16 03:05:22;;;;;;;11.02;5.90;;;;;;;16.55;100.00;100943.25;4982920;28;20077;-57
2021/06/16 03:07:51;;;;;;;10.15;4.95;;;;;;;16.53;100.00;100930.81;4982680;28;20326;-57
2021/06/16 03:10:20;;;;;;;9.32;4.95;;;;;;;16.34;100.00;100931.53;4980339;28;20034;-57
2021/06/16 03:12:49;;;;;;;15.95;5.47;;;;;;;16.25;100.00;100927.34;4982339;28;20042;-57
2021/06/16 03:15:18;;;;;;;9.98;5.15;;;;;;;16.28;100.00;100921.56;4982069;28;20042;-57
2021/06/16 03:17:47;;;;;;;8.60;4.82;;;;;;;16.73;100.00;100924.69;4981612;28;20105;-57
2021/06/16 03:20:17;;;;;;;9.43;5.55;;;;;;;16.47;100.00;100925.38;4981915;28;20042;-57
2021/06/16 03:22:47;;;;;;;9.70;5.60;;;;;;;16.40;100.00;100925.38;4985472;28;20402;-57
2021/06/16 03:25:17;;;;;;;9.68;4.97;;;;;;;16.35;100.00;100925.13;4982876;28;20138;-57
2021/06/16 03:27:45;;;;;;;6.75;4.20;;;;;;;16.37;100.00;100925.75;4983115;28;20042;-57
2021/06/16 03:30:15;;;;;;;10.35;5.75;;;;;;;16.37;100.00;100924.91;4984274;28;20120;-57
2021/06/16 03:32:43;;;;;;;11.35;5.28;;;;;;;16.37;100.00;100911.44;4983932;28;20125;-57
2021/06/16 03:35:12;;;;;;;9.05;5.32;;;;;;;16.36;100.00;100921.41;4980764;28;20062;-57
2021/06/16 03:37:40;;;;;;;8.80;4.90;;;;;;;16.28;100.00;100917.00;4984874;28;20248;-57
2021/06/16 03:40:11;;;;;;;10.05;5.30;;;;;;;16.29;100.00;100921.34;4982566;28;20038;-57
2021/06/16 03:42:40;;;;;;;11.18;5.13;;;;;;;16.27;100.00;100919.88;4983408;28;20440;-57
2021/06/16 03:45:09;;;;;;;10.43;5.70;;;;;;;16.29;100.00;100917.84;4983402;28;20057;-57
2021/06/16 03:47:40;;;;;;;11.70;5.40;;;;;;;16.27;100.00;100920.72;4985206;28;20332;-57
2021/06/16 03:50:09;;;;;;;12.52;5.10;;;;;;;16.27;100.00;100914.50;4982573;28;20046;-58
2021/06/16 03:52:39;;;;;;;10.45;5.28;;;;;;;16.32;100.00;100918.25;4979091;28;20117;-57
2021/06/16 03:55:07;;;;;;;8.45;5.03;;;;;;;16.31;100.00;100913.06;4985109;28;20092;-57
2021/06/16 03:57:39;;;;;;;10.98;4.85;;;;;;;16.35;100.00;100903.56;4981981;28;20082;-58
2021/06/16 04:00:08;;;;;;;10.82;5.00;;;;;;;16.40;100.00;100909.19;4987876;28;20049;-57
2021/06/16 04:02:36;;;;;;;8.73;5.05;;;;;;;16.47;100.00;100899.28;4983850;28;20038;-57
2021/06/16 04:05:07;;;;;;;7.95;5.03;;;;;;;16.56;100.00;100899.09;4985527;28;20096;-56
2021/06/16 04:07:35;;;;;;;9.80;4.75;;;;;;;16.64;100.00;100899.75;4982660;28;20073;-57
2021/06/16 04:10:06;;;;;;;8.23;4.53;;;;;;;16.68;100.00;100901.03;4983690;28;20102;-57
2021/06/16 04:12:35;;;;;;;12.07;5.20;;;;;;;16.65;100.00;100900.59;4982441;28;20042;-57
2021/06/16 04:15:06;;;;;;;8.93;4.53;;;;;;;16.61;100.00;100904.72;4980119;28;20097;-58
2021/06/16 04:17:34;;;;;;;13.50;4.57;;;;;;;16.60;100.00;100898.50;4976652;28;20113;-57
2021/06/16 04:20:02;;;;;;;14.18;4.90;;;;;;;16.60;100.00;100900.34;4982962;28;20434;-57
2021/06/16 04:22:30;;;;;;;11.80;5.05;;;;;;;16.66;100.00;100903.09;4980382;28;20038;-57
2021/06/16 04:24:58;;;;;;;9.25;4.40;;;;;;;16.63;100.00;100900.78;4985702;28;20042;-57
2021/06/16 04:27:26;;;;;;;7.57;5.07;;;;;;;16.77;100.00;100901.69;4980553;28;20387;-58
2021/06/16 04:29:55;;;;;;;8.82;4.75;;;;;;;16.78;100.00;100897.09;4982860;28;20046;-57
2021/06/16 04:32:26;;;;;;;8.45;4.95;;;;;;;16.83;100.00;100887.38;4982295;28;20048;-57
2021/06/16 04:34:54;;;;;;;12.95;5.35;;;;;;;16.91;100.00;100885.56;4980953;28;20394;-57
2021/06/16 04:37:22;;;;;;;7.13;4.65;;;;;;;16.77;100.00;100885.50;4981433;28;20434;-57
2021/06/16 04:39:50;;;;;;;8.40;4.10;;;;;;;16.72;100.00;100887.97;4981354;28;20427;-57
2021/06/16 04:42:18;;;;;;;10.27;5.13;;;;;;;16.65;100.00;100887.09;4979148;28;20049;-57
2021/06/16 04:44:46;;;;;;;7.18;4.53;;;;;;;17.27;100.00;100887.91;4986674;28;20038;-57
2021/06/16 04:47:14;;;;;;;6.88;3.85;;;;;;;17.36;100.00;100889.38;4985072;28;20073;-57
2021/06/16 04:49:44;;;;;;;7.95;4.45;;;;;;;17.09;100.00;100887.69;4979868;28;20046;-57
2021/06/16 04:52:12;;;;;;;7.30;4.95;;;;;;;16.72;100.00;100890.66;4982233;28;20042;-57
2021/06/16 04:54:40;;;;;;;9.07;4.32;;;;;;;16.70;100.00;100881.94;4981565;28;20100;-57
2021/06/16 04:57:09;;;;;;;8.75;5.43;;;;;;;16.75;100.00;100890.25;4981505;28;20097;-57
2021/06/16 04:59:37;;;;;;;8.18;5.45;;;;;;;16.84;100.00;100880.09;4977262;28;20043;-57
2021/06/16 05:02:05;;;;;;;13.07;5.35;;;;;;;16.84;100.00;100882.81;4980988;28;20038;-58
2021/06/16 05:04:33;;;;;;;8.57;5.18;;;;;;;16.84;100.00;100877.41;4977937;28;20489;-57
2021/06/16 05:07:02;;;;;;;11.68;5.45;;;;;;;16.91;100.00;100872.06;4983333;28;20050;-57
2021/06/16 05:09:30;;;;;;;8.13;5.20;;;;;;;17.23;100.00;100880.44;4982396;28;20071;-57
2021/06/16 05:11:58;;;;;;;8.10;5.00;;;;;;;17.29;100.00;100872.34;4981928;28;20061;-57
2021/06/16 05:14:26;;;;;;;9.65;4.90;;;;;;;17.48;100.00;100868.00;4981846;28;20042;-57
2021/06/16 05:16:54;;;;;;;9.65;4.90;;;;;;;17.65;100.00;100867.56;4982319;28;20053;-57
2021/06/16 05:19:23;;;;;;;7.90;5.15;;;;;;;17.80;100.00;100865.47;4978720;28;20058;-57
2021/06/16 05:21:51;;;;;;;8.25;4.45;;;;;;;18.22;100.00;100857.94;4981483;28;20190;-57
2021/06/16 05:24:21;;;;;;;11.23;5.20;;;;;;;18.34;100.00;100860.81;4979992;28;20105;-57
2021/06/16 05:26:49;;;;;;;9.63;4.93;;;;;;;18.44;100.00;100857.66;4982499;28;20062;-60
2021/06/16 05:29:16;;;;;;;9.85;4.63;;;;;;;18.56;100.00;100853.22;4977893;28;20049;-59
2021/06/16 05:31:44;;;;;;;13.48;5.80;;;;;;;18.64;100.00;100854.88;4977828;28;20327;-59
2021/06/16 05:34:12;;;;;;;8.48;5.07;;;;;;;18.74;100.00;100851.69;4976994;28;20399;-57
2021/06/16 05:36:40;;;;;;;8.07;5.45;;;;;;;18.87;100.00;100848.94;4978000;28;20066;-57
2021/06/16 05:39:08;;;;;;;10.45;4.85;;;;;;;18.92;100.00;100846.44;4981701;28;20113;-57
2021/06/16 05:41:38;;;;;;;7.63;5.13;;;;;;;19.68;100.00;100851.88;4978889;28;20366;-57
2021/06/16 05:44:06;;;;;;;12.98;5.53;;;;;;;20.08;100.00;100854.19;4978585;28;20054;-57
2021/06/16 05:46:33;;;;;;;13.77;6.10;;;;;;;20.38;100.00;100853.41;4983491;28;20062;-57
2021/06/16 05:49:01;;;;;;;12.60;4.93;;;;;;;20.76;100.00;100846.09;4979755;28;20388;-58
2021/06/16 05:51:29;;;;;;;9.48;5.60;;;;;;;21.57;100.00;100841.09;4977767;28;20050;-57
2021/06/16 05:53:57;;;;;;;10.13;5.20;;;;;;;21.94;100.00;100838.09;4976872;28;20054;-57
2021/06/16 05:56:25;;;;;;;10.20;4.70;;;;;;;22.25;100.00;100833.31;4981644;28;20047;-57
2021/06/16 05:58:54;;;;;;;5.60;4.00;;;;;;;22.42;100.00;100830.69;4980166;28;20038;-58
2021/06/16 06:01:22;;;;;;;14.57;4.88;;;;;;;22.34;100.00;100831.91;4975957;28;20038;-58
2021/06/16 06:03:50;;;;;;;7.43;4.60;;;;;;;22.79;100.00;100826.75;4980238;28;20100;-59
2021/06/16 06:06:18;;;;;;;9.05;4.63;;;;;;;23.34;100.00;100828.81;4980939;28;20073;-59
2021/06/16 06:08:46;;;;;;;9.68;4.68;;;;;;;23.45;100.00;100829.00;4979223;28;20042;-58
2021/06/16 06:11:14;;;;;;;7.00;4.47;;;;;;;23.04;100.00;100834.56;4981791;28;20051;-58
2021/06/16 06:13:43;;;;;;;11.57;5.10;;;;;;;23.20;100.00;100827.50;4982175;28;20050;-58
2021/06/16 06:16:12;;;;;;;12.80;4.43;;;;;;;23.56;100.00;100825.34;4981338;28;20101;-58
2021/06/16 06:18:40;;;;;;;10.75;5.03;;;;;;;24.02;100.00;100827.91;4977912;28;20056;-58
2021/06/16 06:21:08;;;;;;;8.45;4.05;;;;;;;23.89;100.00;100829.13;4982374;28;20050;-58
2021/06/16 06:23:36;;;;;;;8.82;4.32;;;;;;;24.30;100.00;100824.19;4977584;28;20046;-58
2021/06/16 06:26:04;;;;;;;7.18;4.30;;;;;;;23.99;100.00;100826.50;4979325;28;20046;-58
2021/06/16 06:28:32;;;;;;;9.05;4.22;;;;;;;23.94;100.00;100820.16;4980579;28;20054;-58
2021/06/16 06:31:00;;;;;;;8.68;4.40;;;;;;;24.17;100.00;100819.94;4978737;28;20089;-58
2021/06/16 06:33:29;;;;;;;8.77;5.22;;;;;;;24.55;100.00;100822.81;4978920;28;20043;-58
2021/06/16 06:35:58;;;;;;;10.48;4.53;;;;;;;24.22;100.00;100821.88;4978999;28;20050;-58
2021/06/16 06:38:26;;;;;;;10.52;5.07;;;;;;;24.77;100.00;100821.97;4980329;28;20046;-59
2021/06/16 06:40:53;;;;;;;9.88;5.18;;;;;;;24.92;100.00;100819.38;4978573;28;20039;-58
2021/06/16 06:43:21;;;;;;;10.32;4.80;;;;;;;24.82;100.00;100811.94;4978108;28;20406;-58
2021/06/16 06:45:49;;;;;;;11.10;5.38;;;;;;;24.31;100.00;100804.00;4982726;28;20039;-58
2021/06/16 06:48:17;;;;;;;10.15;5.28;;;;;;;24.37;100.00;100796.69;4984354;28;20063;-58
2021/06/16 06:50:46;;;;;;;11.95;5.15;;;;;;;24.97;100.00;100802.22;4981302;28;20109;-58
2021/06/16 06:53:16;;;;;;;9.75;5.05;;;;;;;24.76;100.00;100807.50;4982102;28;20054;-58
2021/06/16 06:55:45;;;;;;;10.98;5.72;;;;;;;25.03;100.00;100799.25;4986737;28;20049;-58
2021/06/16 06:58:13;;;;;;;9.23;5.20;;;;;;;24.85;100.00;100794.19;4986106;28;20051;-58
2021/06/16 07:00:41;;;;;;;9.75;5.22;;;;;;;24.85;100.00;100797.75;4980550;28;20051;-58
2021/06/16 07:03:11;;;;;;;10.23;6.03;;;;;;;25.50;100.00;100802.38;4985076;28;20050;-58
2021/06/16 07:05:39;;;;;;;9.52;5.22;;;;;;;25.30;100.00;100797.56;4979683;28;20042;-58
2021/06/16 07:08:08;;;;;;;6.53;5.18;;;;;;;25.17;100.00;100796.09;4986177;28;20493;-58
2021/06/16 07:10:36;;;;;;;13.40;5.70;;;;;;;25.23;100.00;100793.16;4984932;28;20073;-58
2021/06/16 07:13:04;;;;;;;13.18;6.28;;;;;;;25.33;100.00;100797.06;4981838;28;20049;-58
2021/06/16 07:15:32;;;;;;;9.52;5.50;;;;;;;25.20;100.00;100792.84;4985973;28;20435;-58
2021/06/16 07:18:00;;;;;;;11.57;5.47;;;;;;;25.39;100.00;100785.91;4982125;28;20350;-58
2021/06/16 07:20:29;;;;;;;10.93;5.85;;;;;;;25.50;100.00;100781.31;4978007;28;20423;-58
2021/06/16 07:22:57;;;;;;;11.45;5.28;;;;;;;26.03;100.00;100783.28;4980704;28;20042;-58
2021/06/16 07:25:26;;;;;;;13.82;5.80;;;;;;;25.90;100.00;100774.44;4977894;28;20335;-58
2021/06/16 07:27:54;;;;;;;8.38;5.05;;;;;;;26.35;100.00;100763.91;4983703;28;20043;-58
2021/06/16 07:30:22;;;;;;;9.82;5.30;;;;;;;26.20;100.00;100766.66;4982134;28;20430;-58
2021/06/16 07:32:52;;;;;;;8.40;5.22;;;;;;;26.60;100.00;100770.56;4981265;28;20489;-58
2021/06/16 07:35:22;;;;;;;11.93;6.22;;;;;;;26.88;100.00;100771.97;4982842;28;20074;-58
2021/06/16 07:37:50;;;;;;;11.18;5.10;;;;;;;26.96;100.00;100779.66;4981235;28;20353;-58
2021/06/16 07:40:18;;;;;;;10.65;5.70;;;;;;;26.59;100.00;100771.63;4986360;28;20046;-58
2021/06/16 07:42:47;;;;;;;9.93;5.80;;;;;;;26.53;100.00;100776.28;4981712;28;20435;-57
2021/06/16 07:45:15;;;;;;;9.35;5.70;;;;;;;26.48;100.00;100778.19;4984379;28;20513;-58
2021/06/16 07:47:44;;;;;;;11.27;6.05;;;;;;;26.89;100.00;100779.09;4984943;28;20673;-58
2021/06/16 07:50:13;;;;;;;10.85;5.80;;;;;;;27.20;100.00;100775.50;4984238;28;20061;-58
2021/06/16 07:52:41;;;;;;;10.13;5.47;;;;;;;27.07;100.00;100768.69;4983953;28;20348;-58
2021/06/16 07:55:10;;;;;;;13.10;6.55;;;;;;;27.09;100.00;100761.81;4983344;28;20076;-58
2021/06/16 07:57:39;;;;;;;10.15;5.15;;;;;;;27.55;100.00;100762.88;4984286;28;20271;-57
2021/06/16 08:00:10;;;;;;;16.73;6.80;;;;;;;27.67;100.00;100766.09;4982639;28;20045;-58
2021/06/16 08:02:39;;;;;;;10.80;6.57;;;;;;;27.44;100.00;100762.88;4983260;28;20117;-58
2021/06/16 08:05:12;;;;;;;11.23;5.68;;;;;;;28.03;100.00;100766.00;4978382;28;20046;-57
2021/06/16 08:07:40;;;;;;;15.55;6.03;;;;;;;27.61;100.00;100762.56;4979938;28;20061;-58
2021/06/16 08:10:09;;;;;;;9.20;5.35;;;;;;;27.71;100.00;100763.63;4983096;28;20046;-58
2021/06/16 08:12:37;;;;;;;10.55;6.60;;;;;;;28.31;100.00;100763.63;4986019;28;20045;-58
2021/06/16 08:15:07;;;;;;;13.13;6.45;;;;;;;27.61;100.00;100759.00;4976821;28;20043;-58
2021/06/16 08:17:36;;;;;;;9.50;6.45;;;;;;;27.07;100.00;100755.78;4981951;28;20042;-58
2021/06/16 08:20:05;;;;;;;10.70;5.80;;;;;;;28.38;100.00;100766.91;4982633;28;20057;-58
2021/06/16 08:22:34;;;;;;;10.35;5.88;;;;;;;28.48;100.00;100757.78;4983228;28;20051;-58
2021/06/16 08:25:05;;;;;;;12.13;7.35;;;;;;;28.47;100.00;100756.16;4983008;28;20038;-58
2021/06/16 08:27:33;;;;;;;10.40;7.05;;;;;;;27.91;100.00;100760.00;4982709;28;20102;-57
2021/06/16 08:30:01;;;;;;;12.32;7.18;;;;;;;28.29;100.00;100754.88;4983817;28;20035;-59
2021/06/16 08:32:29;;;;;;;13.02;6.25;;;;;;;29.18;100.00;100751.19;4982571;28;20481;-59
2021/06/16 08:34:58;;;;;;;10.48;6.95;;;;;;;28.95;100.00;100752.78;4979736;28;20046;-59
2021/06/16 08:37:27;;;;;;;11.10;6.63;;;;;;;28.84;100.00;100750.13;4982536;28;20047;-59
2021/06/16 08:39:55;;;;;;;11.50;6.03;;;;;;;29.37;100.00;100754.03;4981464;28;20058;-59
2021/06/16 08:42:26;;;;;;;12.88;6.25;;;;;;;29.29;100.00;100747.25;4984192;28;20057;-59
2021/06/16 08:44:54;;;;;;;11.55;5.40;;;;;;;29.20;100.00;100749.78;4981228;28;20042;-59
2021/06/16 08:47:24;;;;;;;11.82;6.45;;;;;;;28.91;100.00;100757.22;4982666;28;20062;-59
2021/06/16 08:49:53;;;;;;;10.75;6.75;;;;;;;28.79;100.00;100747.44;4986105;28;20051;-58
2021/06/16 08:52:22;;;;;;;10.63;6.25;;;;;;;28.89;100.00;100751.19;4984610;28;20508;-59
2021/06/16 08:54:50;;;;;;;11.40;6.55;;;;;;;28.44;100.00;100748.50;4979889;28;20397;-59
2021/06/16 08:57:18;;;;;;;12.90;6.80;;;;;;;29.31;100.00;100745.03;4980852;28;20046;-59
2021/06/16 08:59:46;;;;;;;11.52;7.25;;;;;;;28.89;100.00;100740.19;4979119;28;20100;-59
2021/06/16 09:02:14;;;;;;;12.23;7.38;;;;;;;28.98;100.00;100732.97;4981854;28;20453;-59
2021/06/16 09:04:44;;;;;;;12.65;7.32;;;;;;;27.82;100.00;100729.56;4976303;28;20330;-59
2021/06/16 09:07:14;;;;;;;13.30;7.60;;;;;;;29.22;100.00;100737.66;4982077;28;20042;-59
2021/06/16 09:09:49;;;;;;;12.70;7.18;;;;;;;29.92;100.00;100728.13;4984812;28;20057;-59
2021/06/16 09:12:30;;;;;;;12.20;7.07;;;;;;;28.62;100.00;100736.00;4979363;28;20053;-59
2021/06/16 09:14:59;;;;;;;11.35;6.88;;;;;;;28.81;100.00;100734.22;4979252;28;20042;-60
2021/06/16 09:17:27;;;;;;;12.73;6.38;;;;;;;29.49;100.00;100737.97;4982869;28;20050;-60
2021/06/16 09:20:00;;;;;;;10.50;7.13;;;;;;;28.26;100.00;100739.78;4981358;28;20039;-59
2021/06/16 09:22:30;;;;;;;11.35;7.10;;;;;;;28.27;100.00;100741.44;4981546;28;20086;-59
2021/06/16 09:25:03;;;;;;;10.13;6.35;;;;;;;30.00;100.00;100727.47;4976945;28;21073;-60
2021/06/16 09:27:47;;;;;;;9.02;7.57;;;;;;;30.96;100.00;100739.22;4980230;28;20046;-59
2021/06/16 09:30:34;;;;;;;7.75;6.43;;;;;;;29.25;100.00;100742.63;4981352;28;20053;-59
2021/06/16 09:33:08;;;;;;;11.70;6.97;;;;;;;29.97;100.00;100730.78;4979609;28;20050;-59
2021/06/16 09:35:38;;;;;;;12.88;6.95;;;;;;;30.37;100.00;100725.81;4978414;28;20043;-59
2021/06/16 09:38:08;;;;;;;10.50;7.45;;;;;;;30.66;100.00;100724.84;4980313;28;20064;-60
2021/06/16 09:40:41;;;;;;;12.20;8.55;;;;;;;30.10;100.00;100723.75;4981182;28;20066;-59
2021/06/16 09:43:11;;;;;;;8.97;6.20;;;;;;;31.23;100.00;100724.66;4985071;28;20042;-59
2021/06/16 09:45:41;;;;;;;9.07;6.90;;;;;;;31.52;100.00;100729.09;4978409;28;20314;-59
2021/06/16 09:48:37;;;;;;;13.15;7.60;;;;;;;31.37;100.00;100728.28;4982246;28;20135;-59
2021/06/16 09:51:18;;;;;;;;;;;;;;;30.96;100.00;100728.19;4981581;28;20061;-59
2021/06/16 09:53:57;;;;;;;12.00;7.15;;;;;;;30.16;100.00;100725.31;4975027;28;19972;-59
2021/06/16 09:56:29;;;;;;;11.02;6.78;;;;;;;30.47;100.00;100725.69;4979766;28;20491;-59
2021/06/16 09:58:57;;;;;;;9.30;6.75;;;;;;;30.94;100.00;100727.69;4979388;28;20043;-59
2021/06/16 10:01:46;;;;;;;11.60;7.55;;;;;;;31.29;100.00;100715.19;4981916;28;20042;-59
2021/06/16 10:04:35;;;;;;;11.07;7.47;;;;;;;30.47;100.00;100725.69;4981487;28;20074;-58
2021/06/16 10:07:11;;;;;;;12.95;7.38;;;;;;;30.16;100.00;100728.88;4977650;28;20050;-59
2021/06/16 10:09:39;;;;;;;14.48;7.53;;;;;;;31.02;100.00;100732.53;4986042;28;20442;-59
2021/06/16 10:12:09;;;;;;;13.00;7.65;;;;;;;27.72;100.00;100724.97;4980594;28;20105;-59
2021/06/16 10:14:38;;;;;;;12.32;6.53;;;;;;;29.34;100.00;100727.94;4977385;28;20081;-59
2021/06/16 10:17:07;;;;;;;12.05;6.70;;;;;;;30.72;100.00;100731.88;4984444;28;20438;-59
2021/06/16 10:19:36;;;;;;;16.13;7.97;;;;;;;30.65;100.00;100720.44;4983076;28;20050;-59
2021/06/16 10:22:04;;;;;;;16.08;8.05;;;;;;;30.18;100.00;100725.81;4986577;28;20046;-59
2021/06/16 10:24:32;;;;;;;10.10;7.15;;;;;;;31.44;100.00;100725.09;4982194;28;20296;-59
2021/06/16 10:27:03;;;;;;;11.35;6.63;;;;;;;30.94;100.00;100724.94;4984887;28;20073;-59
2021/06/16 10:29:37;;;;;;;13.45;8.20;;;;;;;27.95;100.00;100711.69;4986694;28;20047;-59
2021/06/16 10:32:10;;;;;;;16.05;7.43;;;;;;;29.92;100.00;100722.63;4984935;28;20056;-59
2021/06/16 10:34:57;;;;;;;8.68;6.55;;;;;;;29.95;100.00;100713.75;4981286;28;20046;-59
2021/06/16 10:37:28;;;;;;;9.57;6.50;;;;;;;29.23;100.00;100712.66;4983444;28;20046;-60
2021/06/16 10:40:39;;;;;;;9.80;7.18;;;;;;;31.51;100.00;100706.19;4982930;28;20177;-59
2021/06/16 10:43:17;;;;;;;12.00;7.38;;;;;;;32.09;100.00;100703.88;4982549;28;20069;-59
2021/06/16 10:45:53;;;;;;;7.25;5.93;;;;;;;31.62;100.00;100698.56;4982317;28;20066;-60
2021/06/16 10:48:21;;;;;;;9.52;5.75;;;;;;;30.95;100.00;100702.56;4983877;28;20090;-60
2021/06/16 10:51:03;;;;;;;6.80;6.07;;;;;;;30.66;100.00;100697.28;4985802;28;20081;-59
2021/06/16 10:53:31;;;;;;;10.35;6.57;;;;;;;30.78;100.00;100700.38;4979848;28;20233;-59
2021/06/16 10:56:09;;;;;;;7.47;6.10;;;;;;;31.63;100.00;100696.59;4985700;28;20050;-60
2021/06/16 10:58:45;;;;;;;10.55;7.55;;;;;;;30.41;100.00;100685.56;4986707;28;20435;-59
2021/06/16 11:01:16;;;;;;;9.50;6.50;;;;;;;30.39;100.00;100687.78;4981942;28;20057;-59
2021/06/16 11:04:02;;;;;;;8.45;6.85;;;;;;;29.22;100.00;100690.94;4983465;28;20057;-59
2021/06/16 11:06:37;;;;;;;11.48;5.88;;;;;;;30.44;100.00;100686.91;4986155;28;20458;-59
2021/06/16 11:09:06;;;;;;;6.82;6.05;;;;;;;28.80;100.00;100683.09;4978981;28;20043;-59
2021/06/16 11:12:06;;;;;;;7.60;5.68;;;;;;;30.94;100.00;100676.13;4985393;28;20480;-59
2021/06/16 11:14:48;;;;;;;9.20;6.22;;;;;;;28.16;100.00;100669.31;4978461;28;20092;-59
2021/06/16 11:17:44;;;;;;;10.35;5.00;;;;;;;30.12;100.00;100675.50;4982691;28;20038;-59
2021/06/16 11:20:19;;;;;;;11.27;7.30;;;;;;;29.74;100.00;100667.22;4983429;28;20370;-59
2021/06/16 11:22:53;;;;;;;9.13;5.78;;;;;;;31.06;100.00;100664.63;4979965;28;20042;-59
2021/06/16 11:25:39;;;;;;;6.35;5.53;;;;;;;32.04;94.51;100671.69;4977506;28;20046;-59